SWR115Y LSZH-EGLL
Flight info
| Callsign | SWR115Y |
|---|---|
| Flight time | N/A |
| Altitude | 36000 |
| Route | VEBIT T10 TORPA DCT REKLA DCT RLP DCT ROTSI DCT KOTUN DCT NINAL DCT ABNUR DCT DIMAL DCT ALESO |
| Aircraft | A21N/M-SDE2E3FGHIRWXY/LB1 |
Departure
| Time | N/A |
|---|---|
| Airport | Zürich Airport (LSZH) |
Arrival
| Time | 2026-05-04 20:14 |
|---|---|
| Airport | London Heathrow Airport (EGLL) |
| Time | Latitude | Longitude | Altitude | Speed | Heading |
|---|---|---|---|---|---|
| 2026-05-04 19:39 | 49.59663 | 2.54266 | 35948 ft | 453 kts | 314° |
| 2026-05-04 19:39 | 49.62061 | 2.51094 | 35948 ft | 455 kts | 320° |
| 2026-05-04 19:40 | 49.67113 | 2.45200 | 35951 ft | 455 kts | 321° |
| 2026-05-04 19:40 | 49.72187 | 2.39348 | 35950 ft | 455 kts | 321° |
| 2026-05-04 19:41 | 49.77234 | 2.33440 | 35949 ft | 454 kts | 321° |
| 2026-05-04 19:41 | 49.82264 | 2.27500 | 35950 ft | 455 kts | 321° |
| 2026-05-04 19:42 | 49.87298 | 2.21537 | 35952 ft | 455 kts | 321° |
| 2026-05-04 19:42 | 49.92325 | 2.15574 | 35967 ft | 455 kts | 321° |
| 2026-05-04 19:42 | 49.94834 | 2.12590 | 35812 ft | 451 kts | 321° |
| 2026-05-04 19:43 | 49.97289 | 2.09664 | 34994 ft | 452 kts | 321° |
| 2026-05-04 19:43 | 49.99785 | 2.06686 | 34378 ft | 453 kts | 320° |
| 2026-05-04 19:43 | 50.02293 | 2.03690 | 34093 ft | 456 kts | 320° |
| 2026-05-04 19:44 | 50.07333 | 1.97657 | 33974 ft | 458 kts | 320° |
| 2026-05-04 19:44 | 50.12369 | 1.91594 | 33982 ft | 457 kts | 320° |
| 2026-05-04 19:45 | 50.17380 | 1.85480 | 33985 ft | 457 kts | 316° |
| 2026-05-04 19:45 | 50.21942 | 1.78613 | 33990 ft | 455 kts | 313° |
| 2026-05-04 19:46 | 50.26466 | 1.71679 | 33991 ft | 456 kts | 313° |
| 2026-05-04 19:46 | 50.30996 | 1.64753 | 33991 ft | 455 kts | 313° |
| 2026-05-04 19:47 | 50.35511 | 1.57828 | 33992 ft | 455 kts | 313° |
| 2026-05-04 19:47 | 50.40022 | 1.50875 | 33989 ft | 455 kts | 313° |
| 2026-05-04 19:48 | 50.44534 | 1.43936 | 33989 ft | 454 kts | 313° |
| 2026-05-04 19:48 | 50.49027 | 1.36971 | 33988 ft | 454 kts | 312° |
| 2026-05-04 19:48 | 50.51187 | 1.33375 | 33832 ft | 448 kts | 311° |
| 2026-05-04 19:49 | 50.53308 | 1.29784 | 32901 ft | 450 kts | 310° |
| 2026-05-04 19:49 | 50.55445 | 1.26146 | 31884 ft | 455 kts | 311° |
| 2026-05-04 19:49 | 50.57610 | 1.22500 | 30929 ft | 457 kts | 312° |
| 2026-05-04 19:49 | 50.59851 | 1.18942 | 29973 ft | 458 kts | 313° |
| 2026-05-04 19:50 | 50.62098 | 1.15377 | 29035 ft | 458 kts | 313° |
| 2026-05-04 19:50 | 50.64336 | 1.11847 | 28302 ft | 453 kts | 314° |
| 2026-05-04 19:50 | 50.66553 | 1.08354 | 27595 ft | 448 kts | 314° |
| 2026-05-04 19:50 | 50.68737 | 1.04903 | 26889 ft | 442 kts | 314° |
| 2026-05-04 19:51 | 50.70897 | 1.01477 | 26161 ft | 437 kts | 314° |
| 2026-05-04 19:51 | 50.73022 | 0.98088 | 25439 ft | 432 kts | 313° |
| 2026-05-04 19:51 | 50.75119 | 0.94726 | 24706 ft | 427 kts | 314° |
| 2026-05-04 19:51 | 50.77203 | 0.91418 | 23984 ft | 423 kts | 314° |
| 2026-05-04 19:52 | 50.79239 | 0.88175 | 23262 ft | 418 kts | 314° |
| 2026-05-04 19:52 | 50.81261 | 0.84900 | 22558 ft | 414 kts | 313° |
| 2026-05-04 19:52 | 50.83264 | 0.81669 | 21838 ft | 410 kts | 314° |
| 2026-05-04 19:52 | 50.85243 | 0.78463 | 21123 ft | 406 kts | 314° |
| 2026-05-04 19:53 | 50.87210 | 0.75289 | 20432 ft | 402 kts | 314° |
| 2026-05-04 19:53 | 50.89167 | 0.72165 | 19738 ft | 398 kts | 314° |
| 2026-05-04 19:53 | 50.91116 | 0.69079 | 19055 ft | 394 kts | 314° |
| 2026-05-04 19:53 | 50.93041 | 0.66018 | 18380 ft | 390 kts | 314° |
| 2026-05-04 19:54 | 50.94926 | 0.62968 | 17715 ft | 386 kts | 314° |
| 2026-05-04 19:54 | 50.96788 | 0.59920 | 17049 ft | 382 kts | 314° |
| 2026-05-04 19:54 | 50.98633 | 0.56907 | 16400 ft | 379 kts | 314° |
| 2026-05-04 19:54 | 51.00460 | 0.53925 | 15759 ft | 375 kts | 314° |
| 2026-05-04 19:55 | 51.02273 | 0.50987 | 15112 ft | 371 kts | 314° |
| 2026-05-04 19:55 | 51.04072 | 0.48067 | 14488 ft | 368 kts | 314° |
| 2026-05-04 19:55 | 51.05849 | 0.45176 | 13879 ft | 364 kts | 314° |
| 2026-05-04 19:55 | 51.07636 | 0.42358 | 13264 ft | 360 kts | 316° |
| 2026-05-04 19:56 | 51.09436 | 0.39611 | 12648 ft | 357 kts | 316° |
| 2026-05-04 19:56 | 51.11221 | 0.36901 | 12027 ft | 353 kts | 316° |
| 2026-05-04 19:56 | 51.12993 | 0.34214 | 11414 ft | 350 kts | 316° |
| 2026-05-04 19:56 | 51.14739 | 0.31565 | 10973 ft | 341 kts | 316° |
| 2026-05-04 19:57 | 51.16429 | 0.29028 | 10711 ft | 326 kts | 316° |
| 2026-05-04 19:57 | 51.18030 | 0.26613 | 10343 ft | 308 kts | 316° |
| 2026-05-04 19:57 | 51.19549 | 0.24312 | 10018 ft | 295 kts | 316° |
| 2026-05-04 19:57 | 51.21005 | 0.22087 | 9756 ft | 285 kts | 316° |
| 2026-05-04 19:58 | 51.22417 | 0.19924 | 9478 ft | 277 kts | 316° |
| 2026-05-04 19:58 | 51.23785 | 0.17821 | 9186 ft | 270 kts | 316° |
| 2026-05-04 19:58 | 51.25126 | 0.15759 | 8887 ft | 264 kts | 316° |
| 2026-05-04 19:58 | 51.26435 | 0.13746 | 8596 ft | 258 kts | 316° |
| 2026-05-04 19:59 | 51.27712 | 0.11780 | 8314 ft | 253 kts | 316° |
| 2026-05-04 19:59 | 51.28964 | 0.09847 | 8026 ft | 247 kts | 316° |
| 2026-05-04 19:59 | 51.30195 | 0.07947 | 7742 ft | 246 kts | 316° |
| 2026-05-04 19:59 | 51.31424 | 0.06050 | 7452 ft | 244 kts | 316° |
| 2026-05-04 20:00 | 51.32591 | 0.04091 | 7158 ft | 244 kts | 307° |
| 2026-05-04 20:00 | 51.33327 | 0.01483 | 7044 ft | 265 kts | 282° |
| 2026-05-04 20:00 | 51.33591 | -0.01323 | 7037 ft | 247 kts | 277° |
| 2026-05-04 20:00 | 51.33770 | -0.04027 | 7035 ft | 243 kts | 276° |
| 2026-05-04 20:01 | 51.33938 | -0.06725 | 7045 ft | 244 kts | 276° |
| 2026-05-04 20:01 | 51.34103 | -0.09422 | 7057 ft | 244 kts | 276° |
| 2026-05-04 20:01 | 51.34269 | -0.12124 | 7052 ft | 244 kts | 276° |
| 2026-05-04 20:01 | 51.34434 | -0.14793 | 7048 ft | 244 kts | 276° |
| 2026-05-04 20:02 | 51.34602 | -0.17531 | 7047 ft | 244 kts | 276° |
| 2026-05-04 20:02 | 51.34764 | -0.20191 | 7047 ft | 244 kts | 276° |
| 2026-05-04 20:02 | 51.34928 | -0.22894 | 7042 ft | 244 kts | 276° |
| 2026-05-04 20:02 | 51.35094 | -0.25633 | 7030 ft | 244 kts | 276° |
| 2026-05-04 20:03 | 51.35255 | -0.28297 | 7023 ft | 244 kts | 276° |
| 2026-05-04 20:03 | 51.35419 | -0.31000 | 7024 ft | 244 kts | 276° |
| 2026-05-04 20:03 | 51.35582 | -0.33697 | 7027 ft | 244 kts | 276° |
| 2026-05-04 20:03 | 51.35747 | -0.36436 | 7030 ft | 244 kts | 276° |
| 2026-05-04 20:04 | 51.35910 | -0.39138 | 7027 ft | 244 kts | 276° |
| 2026-05-04 20:04 | 51.36072 | -0.41836 | 7025 ft | 244 kts | 276° |
| 2026-05-04 20:04 | 51.36235 | -0.44540 | 7025 ft | 244 kts | 276° |
| 2026-05-04 20:04 | 51.36396 | -0.47235 | 7025 ft | 244 kts | 276° |
| 2026-05-04 20:05 | 51.36558 | -0.49938 | 7025 ft | 244 kts | 276° |
| 2026-05-04 20:05 | 51.36708 | -0.52456 | 7024 ft | 244 kts | 276° |
| 2026-05-04 20:05 | 51.36869 | -0.55151 | 7026 ft | 244 kts | 276° |
| 2026-05-04 20:05 | 51.37028 | -0.57832 | 6836 ft | 240 kts | 276° |
| 2026-05-04 20:06 | 51.37185 | -0.60486 | 6449 ft | 239 kts | 276° |
| 2026-05-04 20:06 | 51.37339 | -0.63135 | 6074 ft | 239 kts | 276° |
| 2026-05-04 20:06 | 51.37492 | -0.65773 | 5707 ft | 238 kts | 276° |
| 2026-05-04 20:06 | 51.37610 | -0.67824 | 5426 ft | 237 kts | 276° |
| 2026-05-04 20:07 | 51.37758 | -0.70415 | 5070 ft | 236 kts | 276° |
| 2026-05-04 20:07 | 51.37905 | -0.73026 | 4719 ft | 235 kts | 276° |
| 2026-05-04 20:07 | 51.38227 | -0.75573 | 4342 ft | 234 kts | 296° |
| 2026-05-04 20:07 | 51.39223 | -0.77572 | 4036 ft | 231 kts | 321° |
| 2026-05-04 20:08 | 51.40494 | -0.79090 | 3963 ft | 221 kts | 325° |
| 2026-05-04 20:08 | 51.41697 | -0.80450 | 3946 ft | 202 kts | 326° |
| 2026-05-04 20:08 | 51.42910 | -0.81501 | 3819 ft | 197 kts | 348° |
| 2026-05-04 20:08 | 51.44260 | -0.81689 | 3445 ft | 195 kts | 360° |
| 2026-05-04 20:09 | 51.45603 | -0.81521 | 3091 ft | 195 kts | 20° |
| 2026-05-04 20:09 | 51.46699 | -0.80283 | 2982 ft | 196 kts | 48° |
| 2026-05-04 20:09 | 51.47371 | -0.78402 | 2974 ft | 197 kts | 71° |
| 2026-05-04 20:09 | 51.47646 | -0.76250 | 2981 ft | 197 kts | 83° |
| 2026-05-04 20:10 | 51.47680 | -0.74049 | 2985 ft | 198 kts | 91° |
| 2026-05-04 20:10 | 51.47673 | -0.71894 | 2925 ft | 185 kts | 89° |
| 2026-05-04 20:10 | 51.47677 | -0.69881 | 2725 ft | 176 kts | 88° |
| 2026-05-04 20:10 | 51.47682 | -0.67956 | 2481 ft | 170 kts | 88° |
| 2026-05-04 20:11 | 51.47688 | -0.66088 | 2240 ft | 165 kts | 88° |
| 2026-05-04 20:11 | 51.47695 | -0.64297 | 2015 ft | 156 kts | 88° |
| 2026-05-04 20:11 | 51.47700 | -0.63138 | 1894 ft | 152 kts | 88° |
| 2026-05-04 20:11 | 51.47708 | -0.60903 | 1634 ft | 151 kts | 88° |
| 2026-05-04 20:12 | 51.47714 | -0.59340 | 1437 ft | 134 kts | 88° |
| 2026-05-04 20:12 | 51.47719 | -0.57852 | 1256 ft | 133 kts | 88° |
| 2026-05-04 20:12 | 51.47724 | -0.56373 | 1069 ft | 132 kts | 88° |
| 2026-05-04 20:12 | 51.47731 | -0.54895 | 897 ft | 134 kts | 88° |
| 2026-05-04 20:13 | 51.47737 | -0.53393 | 727 ft | 135 kts | 89° |
| 2026-05-04 20:13 | 51.47739 | -0.51893 | 542 ft | 133 kts | 89° |
| 2026-05-04 20:13 | 51.47734 | -0.50412 | 357 ft | 134 kts | 89° |
| 2026-05-04 20:13 | 51.47741 | -0.48897 | 175 ft | 137 kts | 88° |
| 2026-05-04 20:14 | 51.47752 | -0.47395 | 92 ft | 130 kts | 90° |
| 2026-05-04 20:14 | 51.47757 | -0.46180 | 93 ft | 85 kts | 89° |
| 2026-05-04 20:14 | 51.47761 | -0.45615 | 90 ft | 11 kts | 89° |
| 2026-05-04 20:14 | 51.47739 | -0.45480 | 94 ft | 7 kts | 109° |
| 2026-05-04 20:15 | 51.47711 | -0.45447 | 91 ft | 7 kts | 193° |
| 2026-05-04 20:15 | 51.47678 | -0.45464 | 91 ft | 6 kts | 186° |
| 2026-05-04 20:15 | 51.47644 | -0.45468 | 91 ft | 0 kts | 180° |
| 2026-05-04 20:16 | 51.47622 | -0.45464 | 91 ft | 7 kts | 156° |
| 2026-05-04 20:16 | 51.47597 | -0.45368 | 93 ft | 12 kts | 90° |
| 2026-05-04 20:17 | 51.47596 | -0.45212 | 95 ft | 16 kts | 90° |
| 2026-05-04 20:17 | 51.47599 | -0.45024 | 92 ft | 19 kts | 88° |
| 2026-05-04 20:17 | 51.47602 | -0.44799 | 92 ft | 21 kts | 89° |
| 2026-05-04 20:17 | 51.47578 | -0.44666 | 95 ft | 12 kts | 160° |
| 2026-05-04 20:18 | 51.47500 | -0.44593 | 94 ft | 16 kts | 136° |
| 2026-05-04 20:18 | 51.47387 | -0.44559 | 92 ft | 18 kts | 180° |
| 2026-05-04 20:18 | 51.47250 | -0.44561 | 92 ft | 21 kts | 179° |
| 2026-05-04 20:18 | 51.47094 | -0.44556 | 92 ft | 24 kts | 179° |
| 2026-05-04 20:19 | 51.46999 | -0.44574 | 93 ft | 9 kts | 245° |
| 2026-05-04 20:19 | 51.46997 | -0.44663 | 93 ft | 7 kts | 269° |
| 2026-05-04 20:19 | 51.46997 | -0.44676 | 92 ft | 0 kts | 268° |